Strona główna
METAR-TAF:

METAR-TAF

Lotnisko :

Port lotniczy Adrar

Adrar, Algieria

Szerokość geograficzna: 27-53N, Długość geograficzna: 000-17W, wysokość: 263 m

Aktualna obserwacja pogody

Raport powstał 38 minut temu, godzina 16:00 UTC
Wiatr 16 kt od północny zachód
Temperatura 49°C
Ciśnienie 1005 hPa
Widzialność: 7000 m

METAR: DAUA 191600Z 32016KT 7000 NSC 49/// Q1005

czas: 17:38 (16:38 UTC)

Prognoza

Raport powstał 5 godziny i 38 minut temu, godzina 11:00 UTC
Prognoza ważna od 19 godzina 12 UTC do 20 godzina 12 UTC
Wiatr 8 kt od północny zachód
Widzialność: 8000 m
Stopniowe zmiany
od 19 godzina 21 UTC do 19 godzina 24 UTC
Wiatr 10 kt od wschód
Przejściowo
od 20 godzina 06 UTC do 20 godzina 09 UTC
Wiatr 15 kt od wschód w porywach dochodzący do 25 kt

TAF: DAUA 191100Z 1912/2012 32008KT 8000 NSC BECMG 1921/1924 08010KT TEMPO 2006/2009 08015G25KT

Obserwacja i prognoza pogody dla ponad 4000 lotnisk (raport METAR i TAF).

Dostępne stacje oznaczono żółtymi i czerwonymi punktami na mapie.

Najedź kursorem aby zobaczyć nazwę stacji.

Kliknij aby zobaczyć obserwacje i prognozy pogody.

Aby zmienić mapę: kliknij na zielony przycisk z czarnym krzyżykiem, aby powiększyć; na zielony przycisk z myślnikiem, aby pomniejszyć; na zielone strzałki, aby przejść do map sąsiednich.


METAR-TAF: